createdAt,value
2023-05-06T00:00:30.530Z,21.10
2023-05-06T00:06:33.497Z,19.70
2023-05-06T00:12:35.386Z,20.65
2023-05-06T00:18:37.294Z,19.50
2023-05-06T00:24:39.054Z,20.42
2023-05-06T00:30:41.040Z,19.83
2023-05-06T00:36:43.014Z,20.88
2023-05-06T00:42:44.835Z,18.42
2023-05-06T00:48:46.699Z,15.43
2023-05-06T00:54:49.427Z,21.63
2023-05-06T01:00:52.333Z,17.08
2023-05-06T01:06:57.412Z,19.73
2023-05-06T01:13:59.002Z,20.88
2023-05-06T01:20:02.259Z,19.88
2023-05-06T01:26:04.062Z,21.83
2023-05-06T01:32:36.258Z,33.72
2023-05-06T01:38:47.204Z,161.07
2023-05-06T01:44:49.844Z,73.03
2023-05-06T01:50:52.003Z,81.47
2023-05-06T01:56:54.288Z,24.27
2023-05-06T02:02:56.311Z,121.10
2023-05-06T02:08:58.153Z,61.47
2023-05-06T02:15:00.153Z,79.00
2023-05-06T02:21:03.230Z,66.80
2023-05-06T02:27:05.036Z,33.88
2023-05-06T02:33:06.919Z,24.55
2023-05-06T02:39:08.801Z,27.80
2023-05-06T02:45:11.297Z,43.20
2023-05-06T02:51:14.350Z,26.10
2023-05-06T02:57:16.214Z,31.63
2023-05-06T03:03:18.401Z,23.42
2023-05-06T03:09:20.394Z,24.08
2023-05-06T03:15:22.289Z,19.05
2023-05-06T03:21:24.156Z,24.05
2023-05-06T03:27:26.006Z,35.53
2023-05-06T03:33:27.802Z,56.40
2023-05-06T03:39:29.711Z,54.53
2023-05-06T03:45:31.601Z,68.05
2023-05-06T03:51:33.716Z,86.38
2023-05-06T03:57:35.669Z,104.20
2023-05-06T04:03:38.038Z,70.00
2023-05-06T04:09:40.464Z,102.95
2023-05-06T04:15:42.624Z,73.63
2023-05-06T04:21:45.617Z,105.35
2023-05-06T04:27:47.510Z,123.75
2023-05-06T04:33:49.488Z,109.25
2023-05-06T04:39:51.375Z,150.48
2023-05-06T04:45:54.383Z,141.65
2023-05-06T04:51:57.073Z,118.00
2023-05-06T04:57:58.853Z,99.57
2023-05-06T05:04:00.763Z,56.22
2023-05-06T05:10:02.561Z,47.45
2023-05-06T05:16:04.704Z,55.53
2023-05-06T05:22:06.682Z,49.90
2023-05-06T05:28:08.597Z,41.50
2023-05-06T05:34:10.453Z,16.30
2023-05-06T05:40:12.687Z,24.40
2023-05-06T05:46:14.565Z,20.75
2023-05-06T05:52:16.437Z,18.30
2023-05-06T05:58:18.291Z,25.73
2023-05-06T06:04:20.144Z,19.73
2023-05-06T06:10:22.082Z,21.58
2023-05-06T06:16:23.910Z,14.35
2023-05-06T06:22:26.506Z,19.77
2023-05-06T06:28:28.264Z,25.02
2023-05-06T06:34:30.049Z,23.20
2023-05-06T06:40:31.937Z,18.08
2023-05-06T06:46:34.421Z,24.67
2023-05-06T06:52:36.584Z,22.88
2023-05-06T06:58:38.664Z,21.45
2023-05-06T07:04:40.594Z,23.58
2023-05-06T07:10:42.580Z,20.40
2023-05-06T07:16:46.373Z,22.35
2023-05-06T07:22:48.936Z,21.73
2023-05-06T07:28:50.975Z,20.52
2023-05-06T07:34:52.924Z,19.42
2023-05-06T07:40:54.681Z,16.95
2023-05-06T07:46:56.599Z,17.92
2023-05-06T07:52:58.679Z,13.15
2023-05-06T07:59:00.535Z,15.75
2023-05-06T08:05:02.527Z,16.02
2023-05-06T08:11:04.410Z,17.00
2023-05-06T08:17:06.220Z,12.45
2023-05-06T08:23:08.064Z,10.07
2023-05-06T08:29:09.878Z,13.30
2023-05-06T08:35:11.995Z,11.80
2023-05-06T08:41:16.367Z,11.45
2023-05-06T08:53:20.480Z,14.70
2023-05-06T08:59:30.393Z,9.13
2023-05-06T09:05:32.122Z,8.18
2023-05-06T09:11:36.219Z,7.15
2023-05-06T09:23:40.712Z,10.05
2023-05-06T09:30:09.644Z,9.20
2023-05-06T09:36:13.539Z,10.27
2023-05-06T09:48:18.044Z,8.23
2023-05-06T09:54:20.171Z,8.88
2023-05-06T10:00:28.039Z,8.13
2023-05-06T10:06:30.642Z,7.93
2023-05-06T10:12:32.700Z,8.02
2023-05-06T10:18:37.062Z,6.90
2023-05-06T10:25:23.700Z,8.57
2023-05-06T10:31:27.347Z,7.63
2023-05-06T10:37:32.007Z,8.30
2023-05-06T10:43:35.136Z,8.00
2023-05-06T10:49:37.144Z,6.70
2023-05-06T10:55:38.903Z,9.55
2023-05-06T11:01:43.023Z,7.28
2023-05-06T11:07:44.905Z,6.03
2023-05-06T11:13:53.239Z,5.95
2023-05-06T11:20:18.158Z,7.47
2023-05-06T11:26:20.186Z,6.75
2023-05-06T11:32:23.296Z,4.95
2023-05-06T11:38:26.540Z,6.05
2023-05-06T11:44:31.299Z,6.03
2023-05-06T11:50:33.239Z,4.28
2023-05-06T11:56:48.828Z,5.68
2023-05-06T12:02:56.379Z,5.47
2023-05-06T12:08:58.375Z,4.78
2023-05-06T12:15:00.451Z,4.65
2023-05-06T12:21:02.932Z,4.43
2023-05-06T12:27:04.776Z,3.88
2023-05-06T12:33:08.343Z,5.57
2023-05-06T12:45:14.871Z,4.43
2023-05-06T12:51:21.076Z,4.05
2023-05-06T12:57:23.497Z,3.75
2023-05-06T13:03:25.455Z,5.38
2023-05-06T13:09:27.531Z,4.05
2023-05-06T13:15:29.293Z,5.03
2023-05-06T13:21:34.514Z,4.18
2023-05-06T13:27:36.477Z,4.50
2023-05-06T13:33:38.546Z,6.60
2023-05-06T13:39:40.737Z,5.40
2023-05-06T13:45:44.962Z,5.38
2023-05-06T13:51:46.780Z,6.25
2023-05-06T13:57:48.552Z,5.82
2023-05-06T14:03:50.807Z,5.03
2023-05-06T14:09:52.558Z,5.43
2023-05-06T14:15:55.305Z,4.97
2023-05-06T14:21:57.192Z,5.47
2023-05-06T14:27:58.944Z,4.65
2023-05-06T14:34:02.247Z,5.75
2023-05-06T14:40:05.596Z,6.20
2023-05-06T14:46:07.863Z,5.72
2023-05-06T14:52:09.652Z,5.97
2023-05-06T14:58:11.430Z,5.38
2023-05-06T15:04:13.171Z,5.72
2023-05-06T15:10:15.243Z,4.68
2023-05-06T15:16:17.114Z,6.25
2023-05-06T15:22:19.024Z,4.63
2023-05-06T15:28:23.679Z,9.40
2023-05-06T15:34:26.332Z,5.65
2023-05-06T15:40:28.368Z,8.00
2023-05-06T15:46:31.262Z,5.35
2023-05-06T15:52:33.118Z,8.23
2023-05-06T15:58:35.782Z,5.97
2023-05-06T16:04:37.822Z,5.88
2023-05-06T16:10:39.973Z,7.72
2023-05-06T16:16:41.931Z,5.20
2023-05-06T16:22:50.467Z,5.40
2023-05-06T16:28:53.804Z,9.13
2023-05-06T16:34:55.557Z,6.30
2023-05-06T16:40:57.461Z,5.53
2023-05-06T16:46:59.381Z,5.55
2023-05-06T16:53:01.174Z,6.68
2023-05-06T16:59:02.994Z,6.20
2023-05-06T17:05:05.624Z,6.57
2023-05-06T17:11:07.583Z,8.88
2023-05-06T17:17:09.384Z,6.55
2023-05-06T17:23:11.400Z,5.88
2023-05-06T17:29:13.220Z,7.85
2023-05-06T17:35:15.141Z,7.78
2023-05-06T17:41:16.951Z,8.75
2023-05-06T17:47:22.665Z,6.20
2023-05-06T17:53:24.491Z,7.57
2023-05-06T17:59:27.622Z,5.68
2023-05-06T18:05:30.059Z,6.90
2023-05-06T18:11:31.866Z,7.65
2023-05-06T18:17:34.069Z,7.82
2023-05-06T18:23:35.862Z,9.57
2023-05-06T18:29:37.640Z,7.32
2023-05-06T18:35:39.509Z,7.78
2023-05-06T18:41:44.520Z,8.38
2023-05-06T18:47:46.303Z,6.05
2023-05-06T18:53:48.147Z,7.93
2023-05-06T18:59:50.171Z,7.10
2023-05-06T19:05:52.496Z,6.45
2023-05-06T19:11:55.476Z,6.95
2023-05-06T19:17:57.273Z,7.72
2023-05-06T19:24:00.904Z,10.35
2023-05-06T19:30:02.827Z,7.90
2023-05-06T19:36:05.043Z,7.60
2023-05-06T19:42:06.810Z,7.75
2023-05-06T19:48:08.794Z,7.90
2023-05-06T19:54:10.749Z,9.70
2023-05-06T20:00:14.005Z,9.52
2023-05-06T20:06:15.810Z,10.80
2023-05-06T20:12:17.519Z,14.27
2023-05-06T20:18:19.296Z,16.92
2023-05-06T20:24:21.079Z,16.75
2023-05-06T20:30:22.855Z,17.38
2023-05-06T20:36:24.934Z,19.92
2023-05-06T20:42:27.007Z,16.98
2023-05-06T20:48:30.596Z,17.33
2023-05-06T20:54:32.471Z,18.55
2023-05-06T21:00:34.176Z,21.40
2023-05-06T21:06:35.940Z,20.63
2023-05-06T21:12:37.829Z,22.77
2023-05-06T21:18:39.625Z,20.48
2023-05-06T21:24:41.356Z,17.00
2023-05-06T21:30:43.178Z,19.00
2023-05-06T21:36:44.991Z,17.98
2023-05-06T21:42:46.797Z,17.08
2023-05-06T21:48:48.548Z,20.73
2023-05-06T21:54:50.396Z,20.00
2023-05-06T22:00:53.345Z,19.67
2023-05-06T22:06:55.219Z,20.80
2023-05-06T22:12:57.257Z,20.98
2023-05-06T22:18:59.411Z,20.70
2023-05-06T22:25:01.212Z,19.02
2023-05-06T22:31:03.082Z,21.38
2023-05-06T22:37:11.023Z,24.20
2023-05-06T22:43:12.810Z,25.38
2023-05-06T22:49:15.945Z,20.77
2023-05-06T22:55:17.802Z,24.88
2023-05-06T23:01:19.681Z,23.88
2023-05-06T23:07:21.517Z,23.08
2023-05-06T23:13:23.569Z,25.23
2023-05-06T23:19:26.001Z,25.52
2023-05-06T23:25:27.878Z,26.25
2023-05-06T23:31:29.796Z,27.02
2023-05-06T23:37:31.718Z,30.25
2023-05-06T23:43:33.506Z,26.30
2023-05-06T23:49:35.986Z,25.80
2023-05-06T23:55:37.899Z,24.50
